This is the latest recevied weather packets stored in our database for station/object EA1IOK-13. If no packets are shown the sender has not sent any weather packets the latest 1 day(s).
| Time | Temp. | Humidity | Pressure | Rain* | Wind** | Luminosity | Snow |
|---|---|---|---|---|---|---|---|
| 1778024149 | 8.89° C | 94% | 1016.3 hPa | 0 mm | 1.34 m/s, 4° | - | - |
| 1778022348 | 8.89° C | 94% | 1016.4 hPa | 0 mm | 0.89 m/s, 352° | - | - |
| 1778020593 | 8.33° C | 94% | 1016.4 hPa | 0 mm | 1.34 m/s, 7° | - | - |
| 1778020549 | 8.33° C | 94% | 1016.4 hPa | 0 mm | 1.34 m/s, 7° | - | - |
| 1778018827 | 8.89° C | 94% | 1016.5 hPa | 0 mm | 0.89 m/s, 0° | - | - |
| 1778018749 | 8.89° C | 94% | 1016.5 hPa | 0 mm | 0.89 m/s, 0° | - | - |
| 1778017179 | 8.89° C | 94% | 1016.4 hPa | 0 mm | 1.34 m/s, 0° | - | - |
| 1778016949 | 8.89° C | 94% | 1016.4 hPa | 0 mm | 1.34 m/s, 0° | - | - |
| 1778015149 | 9.44° C | 94% | 1016.4 hPa | 0 mm | 1.34 m/s, 9° | - | - |
| 1778013350 | 8.33° C | 93% | 1016.3 hPa | 0 mm | 0.45 m/s, 19° | - | - |
| 1778012450 | 9.44° C | 92% | 1016.1 hPa | 0 mm | 0.45 m/s, 19° | - | - |
| 1778011549 | 9.44° C | 94% | 1015.9 hPa | 0 mm | 0.45 m/s, 5° | - | - |
| 1778010652 | 9.44° C | 94% | 1015.8 hPa | 0 mm | 0.89 m/s, 346° | - | - |
| 1778009979 | 10° C | 92% | 1015.5 hPa | 0 mm | 0.45 m/s, 343° | - | - |
| 1778009749 | 10° C | 92% | 1015.5 hPa | 0 mm | 0.45 m/s, 343° | - | - |
| 1778008956 | 10° C | 92% | 1015.4 hPa | 0 mm | 0 m/s | - | - |
| 1778008849 | 10° C | 92% | 1015.4 hPa | 0 mm | 0 m/s | - | - |
| 1778007049 | 12.22° C | 88% | 1015.2 hPa | 0 mm | 0 m/s | - | - |
| 1778006379 | 11.67° C | 84% | 1015.1 hPa | 0 mm | 0.89 m/s, 342° | - | - |
| 1778006149 | 11.67° C | 84% | 1015.1 hPa | 0 mm | 0.89 m/s, 342° | - | - |
| 1778004350 | 11.67° C | 86% | 1015 hPa | 0 mm | 1.34 m/s, 332° | - | - |
| 1778002779 | 12.22° C | 81% | 1015 hPa | 0 mm | 2.24 m/s, 37° | - | - |
| 1778002549 | 12.22° C | 81% | 1015 hPa | 0 mm | 2.24 m/s, 37° | - | - |
| 1778000749 | 14.44° C | 79% | 1014.9 hPa | 0 mm | 3.13 m/s, 350° | - | - |
| 1777998949 | 14.44° C | 79% | 1014.7 hPa | 0 mm | 2.24 m/s, 356° | - | - |
* Rain latest hour (hover to see other rain measurements)
** Current wind speed in m/s (hover to see current wind gust speed)